sensor_id;sensor_type;location;lat;lon;timestamp;noise_LAeq;noise_LA_min;noise_LA_max;noise_LA01;noise_LA95
76261;Laerm;65076;52.362;6.588;2023-08-30T00:00:18;36.04;32.04;48.94;;
76261;Laerm;65076;52.362;6.588;2023-08-30T00:05:22;35.44;32.37;43.44;;
76261;Laerm;65076;52.362;6.588;2023-08-30T00:10:24;35.35;32.11;45.17;;
76261;Laerm;65076;52.362;6.588;2023-08-30T00:13:00;35.31;32.49;43.04;;
76261;Laerm;65076;52.362;6.588;2023-08-30T00:18:01;64.45;34.12;74.54;;
76261;Laerm;65076;52.362;6.588;2023-08-30T00:20:40;63.39;33.50;77.10;;
76261;Laerm;65076;52.362;6.588;2023-08-30T00:25:40;35.37;31.09;49.18;;
76261;Laerm;65076;52.362;6.588;2023-08-30T00:28:11;35.28;32.12;45.35;;
76261;Laerm;65076;52.362;6.588;2023-08-30T00:35:45;35.65;31.94;42.75;;
76261;Laerm;65076;52.362;6.588;2023-08-30T00:38:17;35.41;31.16;42.79;;
76261;Laerm;65076;52.362;6.588;2023-08-30T00:40:49;35.05;31.11;42.47;;
76261;Laerm;65076;52.362;6.588;2023-08-30T00:58:42;36.48;31.91;42.48;;
76261;Laerm;65076;52.362;6.588;2023-08-30T01:03:44;36.73;31.15;44.60;;
76261;Laerm;65076;52.362;6.588;2023-08-30T01:13:54;43.09;32.20;54.97;;
76261;Laerm;65076;52.362;6.588;2023-08-30T01:16:36;38.04;32.81;48.69;;
76261;Laerm;65076;52.362;6.588;2023-08-30T01:19:29;36.48;31.62;49.94;;
76261;Laerm;65076;52.362;6.588;2023-08-30T01:24:58;35.62;32.49;42.97;;
76261;Laerm;65076;52.362;6.588;2023-08-30T01:30:08;34.55;31.26;42.05;;
76261;Laerm;65076;52.362;6.588;2023-08-30T01:32:39;34.50;31.44;41.74;;
76261;Laerm;65076;52.362;6.588;2023-08-30T01:35:12;35.76;31.71;47.91;;
76261;Laerm;65076;52.362;6.588;2023-08-30T01:47:48;36.35;32.62;43.18;;
76261;Laerm;65076;52.362;6.588;2023-08-30T01:52:51;35.45;32.53;42.87;;
76261;Laerm;65076;52.362;6.588;2023-08-30T01:57:53;45.88;33.46;63.61;;
76261;Laerm;65076;52.362;6.588;2023-08-30T02:10:28;36.95;33.46;43.46;;
76261;Laerm;65076;52.362;6.588;2023-08-30T02:15:33;36.92;34.07;43.29;;
76261;Laerm;65076;52.362;6.588;2023-08-30T02:23:04;36.83;33.46;44.52;;
76261;Laerm;65076;52.362;6.588;2023-08-30T02:25:40;51.35;33.81;68.67;;
76261;Laerm;65076;52.362;6.588;2023-08-30T02:33:11;43.52;33.67;60.01;;
76261;Laerm;65076;52.362;6.588;2023-08-30T02:38:10;44.88;33.81;62.28;;
76261;Laerm;65076;52.362;6.588;2023-08-30T02:40:46;36.85;33.38;54.95;;
76261;Laerm;65076;52.362;6.588;2023-08-30T02:48:17;38.29;34.57;45.71;;
76261;Laerm;65076;52.362;6.588;2023-08-30T02:58:21;42.85;34.81;58.55;;
76261;Laerm;65076;52.362;6.588;2023-08-30T03:03:21;38.74;34.57;44.72;;
76261;Laerm;65076;52.362;6.588;2023-08-30T03:05:54;42.23;35.84;54.09;;
76261;Laerm;65076;52.362;6.588;2023-08-30T03:15:55;40.34;37.24;46.65;;
76261;Laerm;65076;52.362;6.588;2023-08-30T03:21:00;38.91;36.12;46.48;;
76261;Laerm;65076;52.362;6.588;2023-08-30T03:25:59;43.36;37.79;54.75;;
76261;Laerm;65076;52.362;6.588;2023-08-30T03:31:12;39.98;36.76;46.95;;
76261;Laerm;65076;52.362;6.588;2023-08-30T03:36:16;44.32;36.65;52.41;;
76261;Laerm;65076;52.362;6.588;2023-08-30T03:41:18;58.86;38.85;73.43;;
76261;Laerm;65076;52.362;6.588;2023-08-30T03:43:49;43.60;37.86;54.63;;
76261;Laerm;65076;52.362;6.588;2023-08-30T03:51:27;54.12;38.58;72.14;;
76261;Laerm;65076;52.362;6.588;2023-08-30T03:58:59;48.97;39.22;63.69;;
76261;Laerm;65076;52.362;6.588;2023-08-30T04:06:31;49.61;37.69;65.72;;
76261;Laerm;65076;52.362;6.588;2023-08-30T04:16:28;43.22;40.56;47.67;;
76261;Laerm;65076;52.362;6.588;2023-08-30T04:18:59;48.83;39.25;65.05;;
76261;Laerm;65076;52.362;6.588;2023-08-30T04:39:19;58.07;42.89;77.57;;
76261;Laerm;65076;52.362;6.588;2023-08-30T04:46:47;56.73;42.33;71.56;;
76261;Laerm;65076;52.362;6.588;2023-08-30T04:49:21;52.89;41.81;68.62;;
76261;Laerm;65076;52.362;6.588;2023-08-30T04:54:22;59.30;42.25;75.67;;
76261;Laerm;65076;52.362;6.588;2023-08-30T04:59:21;52.36;44.33;66.04;;
76261;Laerm;65076;52.362;6.588;2023-08-30T05:04:20;52.04;42.83;66.63;;
76261;Laerm;65076;52.362;6.588;2023-08-30T05:09:24;59.04;43.88;74.04;;
76261;Laerm;65076;52.362;6.588;2023-08-30T05:14:24;50.68;43.93;60.76;;
76261;Laerm;65076;52.362;6.588;2023-08-30T05:16:56;50.94;43.67;63.51;;
76261;Laerm;65076;52.362;6.588;2023-08-30T05:26:58;52.32;42.66;63.56;;
76261;Laerm;65076;52.362;6.588;2023-08-30T05:37:08;58.15;45.22;75.89;;
76261;Laerm;65076;52.362;6.588;2023-08-30T05:44:40;55.86;46.61;65.15;;
76261;Laerm;65076;52.362;6.588;2023-08-30T05:54:43;54.12;43.83;68.65;;
76261;Laerm;65076;52.362;6.588;2023-08-30T05:57:14;50.01;43.47;61.24;;
76261;Laerm;65076;52.362;6.588;2023-08-30T06:02:20;52.32;43.32;61.52;;
76261;Laerm;65076;52.362;6.588;2023-08-30T06:07:21;54.00;43.03;67.75;;
76261;Laerm;65076;52.362;6.588;2023-08-30T06:12:22;59.26;44.18;77.50;;
76261;Laerm;65076;52.362;6.588;2023-08-30T06:14:54;51.99;43.28;61.51;;
76261;Laerm;65076;52.362;6.588;2023-08-30T06:22:29;58.14;45.09;72.81;;
76261;Laerm;65076;52.362;6.588;2023-08-30T06:29:58;54.37;44.61;66.88;;
76261;Laerm;65076;52.362;6.588;2023-08-30T06:35:00;56.43;43.71;72.96;;
76261;Laerm;65076;52.362;6.588;2023-08-30T06:37:36;59.40;44.17;77.35;;
76261;Laerm;65076;52.362;6.588;2023-08-30T06:45:11;67.29;44.02;81.87;;
76261;Laerm;65076;52.362;6.588;2023-08-30T06:52:48;54.01;45.00;67.36;;
76261;Laerm;65076;52.362;6.588;2023-08-30T06:57:52;52.50;43.67;63.44;;
76261;Laerm;65076;52.362;6.588;2023-08-30T07:00:23;54.69;44.84;66.84;;
76261;Laerm;65076;52.362;6.588;2023-08-30T07:15:23;53.11;42.62;62.78;;
76261;Laerm;65076;52.362;6.588;2023-08-30T07:20:22;58.74;44.87;71.91;;
76261;Laerm;65076;52.362;6.588;2023-08-30T07:22:54;53.07;44.10;62.03;;
76261;Laerm;65076;52.362;6.588;2023-08-30T07:32:58;52.97;42.38;62.28;;
76261;Laerm;65076;52.362;6.588;2023-08-30T07:40:27;61.31;42.65;75.24;;
76261;Laerm;65076;52.362;6.588;2023-08-30T07:43:02;52.39;39.95;64.23;;
76261;Laerm;65076;52.362;6.588;2023-08-30T07:48:07;68.44;43.45;81.89;;
76261;Laerm;65076;52.362;6.588;2023-08-30T07:53:10;54.94;43.64;66.32;;
76261;Laerm;65076;52.362;6.588;2023-08-30T07:58:09;58.15;44.22;76.04;;
76261;Laerm;65076;52.362;6.588;2023-08-30T08:05:44;56.16;42.78;71.58;;
76261;Laerm;65076;52.362;6.588;2023-08-30T08:10:45;58.63;42.80;73.76;;
76261;Laerm;65076;52.362;6.588;2023-08-30T08:13:17;59.07;45.63;74.01;;
76261;Laerm;65076;52.362;6.588;2023-08-30T08:20:53;63.86;47.04;76.64;;
76261;Laerm;65076;52.362;6.588;2023-08-30T08:28:21;52.76;44.17;60.53;;
76261;Laerm;65076;52.362;6.588;2023-08-30T08:30:53;58.23;44.68;68.22;;
76261;Laerm;65076;52.362;6.588;2023-08-30T08:33:26;51.86;43.35;60.85;;
76261;Laerm;65076;52.362;6.588;2023-08-30T08:38:32;57.21;43.60;73.86;;
76261;Laerm;65076;52.362;6.588;2023-08-30T08:46:09;56.17;44.38;64.28;;
76261;Laerm;65076;52.362;6.588;2023-08-30T08:51:11;60.01;47.88;72.37;;
76261;Laerm;65076;52.362;6.588;2023-08-30T08:53:47;57.52;43.87;67.99;;
76261;Laerm;65076;52.362;6.588;2023-08-30T09:06:17;65.48;45.88;80.14;;
76261;Laerm;65076;52.362;6.588;2023-08-30T09:13:49;58.74;46.18;69.55;;
76261;Laerm;65076;52.362;6.588;2023-08-30T09:18:59;56.89;47.12;69.64;;
76261;Laerm;65076;52.362;6.588;2023-08-30T09:23:59;58.63;46.83;68.18;;
76261;Laerm;65076;52.362;6.588;2023-08-30T09:26:30;54.82;46.46;65.06;;
76261;Laerm;65076;52.362;6.588;2023-08-30T09:31:39;61.35;46.02;74.38;;
76261;Laerm;65076;52.362;6.588;2023-08-30T09:39:14;59.67;46.81;74.52;;
76261;Laerm;65076;52.362;6.588;2023-08-30T09:49:12;58.35;46.80;68.75;;
76261;Laerm;65076;52.362;6.588;2023-08-30T09:51:42;61.13;48.20;72.72;;
76261;Laerm;65076;52.362;6.588;2023-08-30T09:54:15;61.86;44.89;77.06;;
76261;Laerm;65076;52.362;6.588;2023-08-30T09:57:04;56.06;45.31;68.40;;
76261;Laerm;65076;52.362;6.588;2023-08-30T09:59:33;59.47;43.69;77.06;;
76261;Laerm;65076;52.362;6.588;2023-08-30T10:02:05;57.08;47.26;67.07;;
76261;Laerm;65076;52.362;6.588;2023-08-30T10:04:41;54.33;43.78;65.48;;
76261;Laerm;65076;52.362;6.588;2023-08-30T10:19:41;65.96;45.39;78.35;;
76261;Laerm;65076;52.362;6.588;2023-08-30T10:22:12;59.10;42.79;73.30;;
76261;Laerm;65076;52.362;6.588;2023-08-30T10:24:47;55.74;43.80;67.01;;
76261;Laerm;65076;52.362;6.588;2023-08-30T10:27:17;56.83;45.89;66.25;;
76261;Laerm;65076;52.362;6.588;2023-08-30T10:29:49;54.70;44.50;65.19;;
76261;Laerm;65076;52.362;6.588;2023-08-30T10:32:20;54.14;45.48;63.38;;
76261;Laerm;65076;52.362;6.588;2023-08-30T10:34:52;56.40;44.06;65.72;;
76261;Laerm;65076;52.362;6.588;2023-08-30T10:37:27;58.50;45.54;74.53;;
76261;Laerm;65076;52.362;6.588;2023-08-30T10:40:00;60.00;44.57;74.73;;
76261;Laerm;65076;52.362;6.588;2023-08-30T10:42:29;67.94;47.74;77.40;;
76261;Laerm;65076;52.362;6.588;2023-08-30T10:45:00;60.15;45.28;74.16;;
76261;Laerm;65076;52.362;6.588;2023-08-30T10:50:05;58.03;43.85;70.68;;
76261;Laerm;65076;52.362;6.588;2023-08-30T10:57:31;58.41;43.41;71.57;;
76261;Laerm;65076;52.362;6.588;2023-08-30T11:02:28;61.23;43.94;75.96;;
76261;Laerm;65076;52.362;6.588;2023-08-30T11:05:01;58.99;46.05;69.79;;
76261;Laerm;65076;52.362;6.588;2023-08-30T11:12:26;59.32;45.00;75.55;;
76261;Laerm;65076;52.362;6.588;2023-08-30T11:14:56;60.32;46.83;68.41;;
76261;Laerm;65076;52.362;6.588;2023-08-30T11:17:27;58.44;46.19;70.13;;
76261;Laerm;65076;52.362;6.588;2023-08-30T11:20:07;58.55;45.24;70.04;;
76261;Laerm;65076;52.362;6.588;2023-08-30T11:27:34;55.69;45.54;65.72;;
76261;Laerm;65076;52.362;6.588;2023-08-30T11:30:04;52.74;44.95;65.19;;
76261;Laerm;65076;52.362;6.588;2023-08-30T11:32:34;59.52;44.03;74.50;;
76261;Laerm;65076;52.362;6.588;2023-08-30T11:35:08;55.57;43.71;65.59;;
76261;Laerm;65076;52.362;6.588;2023-08-30T11:37:37;59.91;46.38;75.97;;
76261;Laerm;65076;52.362;6.588;2023-08-30T11:42:47;60.14;47.31;75.23;;
76261;Laerm;65076;52.362;6.588;2023-08-30T11:47:45;54.96;45.51;64.67;;
76261;Laerm;65076;52.362;6.588;2023-08-30T11:50:17;70.43;47.63;80.13;;
76261;Laerm;65076;52.362;6.588;2023-08-30T11:52:46;58.66;44.16;70.45;;
76261;Laerm;65076;52.362;6.588;2023-08-30T11:55:16;56.23;45.51;67.35;;
76261;Laerm;65076;52.362;6.588;2023-08-30T12:00:19;52.69;42.23;64.51;;
76261;Laerm;65076;52.362;6.588;2023-08-30T12:07:51;56.70;45.87;67.02;;
76261;Laerm;65076;52.362;6.588;2023-08-30T12:15:19;55.69;43.86;68.91;;
76261;Laerm;65076;52.362;6.588;2023-08-30T12:17:56;54.85;43.06;68.92;;
76261;Laerm;65076;52.362;6.588;2023-08-30T12:22:56;55.27;40.70;66.71;;
76261;Laerm;65076;52.362;6.588;2023-08-30T12:27:53;52.76;43.09;62.54;;
76261;Laerm;65076;52.362;6.588;2023-08-30T12:30:28;55.69;45.09;65.20;;
76261;Laerm;65076;52.362;6.588;2023-08-30T12:35:29;58.78;44.17;73.70;;
76261;Laerm;65076;52.362;6.588;2023-08-30T12:38:14;56.93;44.29;74.54;;
76261;Laerm;65076;52.362;6.588;2023-08-30T12:48:20;55.16;44.81;66.25;;
76261;Laerm;65076;52.362;6.588;2023-08-30T12:50:50;53.64;43.18;62.74;;
76261;Laerm;65076;52.362;6.588;2023-08-30T12:53:25;64.42;43.48;73.84;;
76261;Laerm;65076;52.362;6.588;2023-08-30T13:00:58;54.28;44.43;67.03;;
76261;Laerm;65076;52.362;6.588;2023-08-30T13:05:58;52.65;41.85;61.04;;
76261;Laerm;65076;52.362;6.588;2023-08-30T13:08:33;57.67;41.53;73.29;;
76261;Laerm;65076;52.362;6.588;2023-08-30T13:16:06;51.60;41.66;61.25;;
76261;Laerm;65076;52.362;6.588;2023-08-30T13:21:05;58.84;40.65;71.54;;
76261;Laerm;65076;52.362;6.588;2023-08-30T13:23:41;54.30;44.38;63.68;;
76261;Laerm;65076;52.362;6.588;2023-08-30T13:33:45;53.34;43.17;62.91;;
76261;Laerm;65076;52.362;6.588;2023-08-30T13:41:16;59.02;42.44;73.96;;
76261;Laerm;65076;52.362;6.588;2023-08-30T13:46:16;54.00;45.12;62.74;;
76261;Laerm;65076;52.362;6.588;2023-08-30T13:48:48;62.73;44.50;76.25;;
76261;Laerm;65076;52.362;6.588;2023-08-30T13:53:45;52.99;43.00;63.26;;
76261;Laerm;65076;52.362;6.588;2023-08-30T14:01:15;55.76;45.67;64.72;;
76261;Laerm;65076;52.362;6.588;2023-08-30T14:03:48;56.39;46.75;67.54;;
76261;Laerm;65076;52.362;6.588;2023-08-30T14:06:21;53.00;43.05;65.70;;
76261;Laerm;65076;52.362;6.588;2023-08-30T14:13:55;60.98;43.02;78.24;;
76261;Laerm;65076;52.362;6.588;2023-08-30T14:21:32;57.91;43.83;72.04;;
76261;Laerm;65076;52.362;6.588;2023-08-30T14:28:59;55.54;46.97;66.10;;
76261;Laerm;65076;52.362;6.588;2023-08-30T14:31:30;56.54;44.62;68.47;;
76261;Laerm;65076;52.362;6.588;2023-08-30T14:39:06;61.41;44.96;73.64;;
76261;Laerm;65076;52.362;6.588;2023-08-30T14:44:07;58.42;46.38;73.27;;
76261;Laerm;65076;52.362;6.588;2023-08-30T14:49:11;66.43;46.19;78.36;;
76261;Laerm;65076;52.362;6.588;2023-08-30T14:56:46;52.71;44.29;63.44;;
76261;Laerm;65076;52.362;6.588;2023-08-30T15:04:20;53.60;42.29;63.45;;
76261;Laerm;65076;52.362;6.588;2023-08-30T15:09:18;58.03;42.95;71.91;;
76261;Laerm;65076;52.362;6.588;2023-08-30T15:11:56;53.53;41.59;63.56;;
76261;Laerm;65076;52.362;6.588;2023-08-30T15:21:57;60.74;42.14;74.40;;
76261;Laerm;65076;52.362;6.588;2023-08-30T15:29:29;56.35;44.89;67.18;;
76261;Laerm;65076;52.362;6.588;2023-08-30T15:34:32;56.46;38.07;70.18;;
76261;Laerm;65076;52.362;6.588;2023-08-30T15:39:32;56.27;41.09;67.92;;
76261;Laerm;65076;52.362;6.588;2023-08-30T15:44:34;56.08;42.90;66.45;;
76261;Laerm;65076;52.362;6.588;2023-08-30T15:52:04;57.52;42.73;73.71;;
76261;Laerm;65076;52.362;6.588;2023-08-30T15:54:35;59.39;46.63;75.70;;
76261;Laerm;65076;52.362;6.588;2023-08-30T16:04:42;53.21;39.23;65.25;;
76261;Laerm;65076;52.362;6.588;2023-08-30T16:09:42;57.88;39.85;75.06;;
76261;Laerm;65076;52.362;6.588;2023-08-30T16:12:18;59.33;40.71;76.00;;
76261;Laerm;65076;52.362;6.588;2023-08-30T16:19:53;58.12;39.79;74.59;;
76261;Laerm;65076;52.362;6.588;2023-08-30T16:29:58;52.10;41.89;67.28;;
76261;Laerm;65076;52.362;6.588;2023-08-30T16:32:30;54.50;39.25;63.64;;
76261;Laerm;65076;52.362;6.588;2023-08-30T16:40:05;64.30;42.27;79.85;;
76261;Laerm;65076;52.362;6.588;2023-08-30T16:42:38;48.79;35.59;60.16;;
76261;Laerm;65076;52.362;6.588;2023-08-30T16:52:38;56.29;41.75;68.73;;
76261;Laerm;65076;52.362;6.588;2023-08-30T16:57:41;53.61;36.35;68.71;;
76261;Laerm;65076;52.362;6.588;2023-08-30T17:05:10;52.83;37.07;64.46;;
76261;Laerm;65076;52.362;6.588;2023-08-30T17:07:44;58.89;37.94;75.87;;
76261;Laerm;65076;52.362;6.588;2023-08-30T17:17:48;51.50;37.69;63.38;;
76261;Laerm;65076;52.362;6.588;2023-08-30T17:22:50;61.27;37.25;75.27;;
76261;Laerm;65076;52.362;6.588;2023-08-30T17:27:50;46.82;35.80;58.19;;
76261;Laerm;65076;52.362;6.588;2023-08-30T17:32:53;52.78;34.85;68.85;;
76261;Laerm;65076;52.362;6.588;2023-08-30T17:37:55;58.75;37.68;76.69;;
76261;Laerm;65076;52.362;6.588;2023-08-30T17:42:59;54.67;35.99;71.97;;
76261;Laerm;65076;52.362;6.588;2023-08-30T17:48:00;51.81;35.29;62.89;;
76261;Laerm;65076;52.362;6.588;2023-08-30T17:53:01;58.23;38.13;75.34;;
76261;Laerm;65076;52.362;6.588;2023-08-30T17:55:33;53.66;35.48;65.30;;
76261;Laerm;65076;52.362;6.588;2023-08-30T18:03:09;54.19;39.09;64.12;;
76261;Laerm;65076;52.362;6.588;2023-08-30T18:10:36;57.19;40.71;73.82;;
76261;Laerm;65076;52.362;6.588;2023-08-30T18:13:09;59.12;37.15;76.29;;
76261;Laerm;65076;52.362;6.588;2023-08-30T18:23:13;57.78;36.69;71.70;;
76261;Laerm;65076;52.362;6.588;2023-08-30T18:28:13;49.75;38.65;60.02;;
76261;Laerm;65076;52.362;6.588;2023-08-30T18:30:46;54.21;39.07;67.08;;
76261;Laerm;65076;52.362;6.588;2023-08-30T18:33:25;49.15;36.62;59.48;;
76261;Laerm;65076;52.362;6.588;2023-08-30T18:45:50;55.89;35.70;73.98;;
76261;Laerm;65076;52.362;6.588;2023-08-30T18:48:24;52.26;36.78;66.84;;
76261;Laerm;65076;52.362;6.588;2023-08-30T19:00:53;53.44;40.06;67.56;;
76261;Laerm;65076;52.362;6.588;2023-08-30T19:05:55;49.07;36.35;63.11;;
76261;Laerm;65076;52.362;6.588;2023-08-30T19:08:27;59.89;40.45;77.31;;
76261;Laerm;65076;52.362;6.588;2023-08-30T19:16:01;50.98;36.18;64.60;;
76261;Laerm;65076;52.362;6.588;2023-08-30T19:26:01;59.51;39.36;75.77;;
76261;Laerm;65076;52.362;6.588;2023-08-30T19:31:00;53.49;37.23;67.43;;
76261;Laerm;65076;52.362;6.588;2023-08-30T19:33:31;41.94;36.58;55.00;;
76261;Laerm;65076;52.362;6.588;2023-08-30T19:41:06;58.81;37.17;79.52;;
76261;Laerm;65076;52.362;6.588;2023-08-30T19:48:35;50.56;36.65;63.88;;
76261;Laerm;65076;52.362;6.588;2023-08-30T19:51:10;57.34;35.69;73.70;;
76261;Laerm;65076;52.362;6.588;2023-08-30T20:01:13;53.63;38.19;67.33;;
76261;Laerm;65076;52.362;6.588;2023-08-30T20:08:48;57.87;36.34;77.59;;
76261;Laerm;65076;52.362;6.588;2023-08-30T20:16:19;47.91;36.41;66.13;;
76261;Laerm;65076;52.362;6.588;2023-08-30T20:21:20;56.20;34.62;72.57;;
76261;Laerm;65076;52.362;6.588;2023-08-30T20:23:51;54.83;34.81;70.78;;
76261;Laerm;65076;52.362;6.588;2023-08-30T20:33:55;49.31;36.09;64.61;;
76261;Laerm;65076;52.362;6.588;2023-08-30T20:38:54;58.36;36.46;77.63;;
76261;Laerm;65076;52.362;6.588;2023-08-30T20:46:24;64.39;36.94;75.75;;
76261;Laerm;65076;52.362;6.588;2023-08-30T20:48:59;48.70;34.98;61.54;;
76261;Laerm;65076;52.362;6.588;2023-08-30T20:56:33;56.88;34.93;72.45;;
76261;Laerm;65076;52.362;6.588;2023-08-30T21:06:32;41.92;34.23;55.29;;
76261;Laerm;65076;52.362;6.588;2023-08-30T21:11:33;57.98;34.15;73.67;;
76261;Laerm;65076;52.362;6.588;2023-08-30T21:14:05;47.18;34.56;63.03;;
76261;Laerm;65076;52.362;6.588;2023-08-30T21:21:41;57.10;34.68;70.86;;
76261;Laerm;65076;52.362;6.588;2023-08-30T21:29:12;41.66;34.09;50.29;;
76261;Laerm;65076;52.362;6.588;2023-08-30T21:34:13;44.28;34.14;59.71;;
76261;Laerm;65076;52.362;6.588;2023-08-30T21:36:48;59.00;33.92;75.90;;
76261;Laerm;65076;52.362;6.588;2023-08-30T21:44:21;45.19;35.84;56.40;;
76261;Laerm;65076;52.362;6.588;2023-08-30T21:51:57;55.04;32.81;70.87;;
76261;Laerm;65076;52.362;6.588;2023-08-30T21:59:26;45.02;33.08;61.19;;
76261;Laerm;65076;52.362;6.588;2023-08-30T22:01:58;49.09;33.26;63.29;;
76261;Laerm;65076;52.362;6.588;2023-08-30T22:04:31;43.63;32.89;59.78;;
76261;Laerm;65076;52.362;6.588;2023-08-30T22:14:34;38.39;33.70;57.45;;
76261;Laerm;65076;52.362;6.588;2023-08-30T22:19:38;47.12;33.58;60.71;;
76261;Laerm;65076;52.362;6.588;2023-08-30T22:24:39;52.31;33.57;66.74;;
76261;Laerm;65076;52.362;6.588;2023-08-30T22:27:12;42.28;33.72;57.78;;
76261;Laerm;65076;52.362;6.588;2023-08-30T22:37:15;37.38;32.57;49.26;;
76261;Laerm;65076;52.362;6.588;2023-08-30T22:42:18;66.24;35.68;78.45;;
76261;Laerm;65076;52.362;6.588;2023-08-30T22:47:23;52.21;32.77;71.65;;
76261;Laerm;65076;52.362;6.588;2023-08-30T23:02:16;35.58;32.44;42.80;;
76261;Laerm;65076;52.362;6.588;2023-08-30T23:12:14;36.21;32.71;52.39;;
76261;Laerm;65076;52.362;6.588;2023-08-30T23:14:47;35.91;32.11;42.39;;
76261;Laerm;65076;52.362;6.588;2023-08-30T23:27:23;47.66;32.07;63.96;;
76261;Laerm;65076;52.362;6.588;2023-08-30T23:37:23;34.97;32.03;42.04;;
76261;Laerm;65076;52.362;6.588;2023-08-30T23:42:27;40.27;32.54;53.14;;
76261;Laerm;65076;52.362;6.588;2023-08-30T23:59:50;35.35;31.99;42.47;;
